createdAt,value
2019-04-20T00:00:04.311Z,12.40
2019-04-20T00:02:31.713Z,12.40
2019-04-20T00:05:01.162Z,12.40
2019-04-20T00:07:34.273Z,12.40
2019-04-20T00:10:08.755Z,12.30
2019-04-20T00:12:45.387Z,12.30
2019-04-20T00:15:09.068Z,12.30
2019-04-20T00:17:41.203Z,12.20
2019-04-20T00:20:15.594Z,12.20
2019-04-20T00:22:58.214Z,12.20
2019-04-20T00:25:54.941Z,12.10
2019-04-20T00:28:31.319Z,12.10
2019-04-20T00:31:05.604Z,12.10
2019-04-20T00:33:34.943Z,12.10
2019-04-20T00:35:48.498Z,12.10
2019-04-20T00:38:18.061Z,12.10
2019-04-20T00:40:50.563Z,12.00
2019-04-20T00:43:24.496Z,12.00
2019-04-20T00:45:55.663Z,12.00
2019-04-20T00:48:31.513Z,12.00
2019-04-20T00:51:11.460Z,12.00
2019-04-20T00:53:30.326Z,12.00
2019-04-20T00:55:52.953Z,12.00
2019-04-20T00:58:29.952Z,11.90
2019-04-20T01:01:13.056Z,11.80
2019-04-20T01:03:41.281Z,11.80
2019-04-20T01:06:26.867Z,11.70
2019-04-20T01:08:44.274Z,11.70
2019-04-20T01:11:16.773Z,11.70
2019-04-20T01:13:49.402Z,11.70
2019-04-20T01:16:25.220Z,11.70
2019-04-20T01:18:47.135Z,11.70
2019-04-20T01:21:20.336Z,11.70
2019-04-20T01:23:54.452Z,11.70
2019-04-20T01:26:19.702Z,11.70
2019-04-20T01:29:04.192Z,11.70
2019-04-20T01:31:27.294Z,11.70
2019-04-20T01:33:58.766Z,11.70
2019-04-20T01:36:37.102Z,11.70
2019-04-20T01:39:02.727Z,11.70
2019-04-20T01:41:22.171Z,11.70
2019-04-20T01:43:52.251Z,11.80
2019-04-20T01:46:24.013Z,11.80
2019-04-20T01:48:52.623Z,11.70
2019-04-20T01:51:28.158Z,11.70
2019-04-20T01:54:09.151Z,11.80
2019-04-20T01:56:38.483Z,11.80
2019-04-20T01:59:10.674Z,11.80
2019-04-20T02:01:38.034Z,11.80
2019-04-20T02:04:11.939Z,11.80
2019-04-20T02:06:43.401Z,11.80
2019-04-20T02:09:14.939Z,11.70
2019-04-20T02:11:44.694Z,11.60
2019-04-20T02:14:13.678Z,11.60
2019-04-20T02:16:47.628Z,11.50
2019-04-20T02:19:29.069Z,11.60
2019-04-20T02:21:59.156Z,11.60
2019-04-20T02:24:14.873Z,11.60
2019-04-20T02:26:45.105Z,11.70
2019-04-20T02:29:37.467Z,11.70
2019-04-20T02:34:55.556Z,11.50
2019-04-20T02:37:28.346Z,11.40
2019-04-20T02:39:58.307Z,11.40
2019-04-20T02:42:24.215Z,11.40
2019-04-20T02:45:04.315Z,11.40
2019-04-20T02:47:30.695Z,11.40
2019-04-20T02:52:33.133Z,11.20
2019-04-20T02:55:02.200Z,11.10
2019-04-20T02:57:37.863Z,11.00
2019-04-20T03:00:09.845Z,10.90
2019-04-20T03:02:17.244Z,10.80
2019-04-20T03:04:37.082Z,10.70
2019-04-20T03:07:14.063Z,10.80
2019-04-20T03:09:50.203Z,10.80
2019-04-20T03:12:23.590Z,10.80
2019-04-20T03:14:47.768Z,10.90
2019-04-20T03:17:29.654Z,10.80
2019-04-20T03:19:51.677Z,10.80
2019-04-20T03:22:33.517Z,10.80
2019-04-20T03:24:54.444Z,10.80
2019-04-20T03:27:28.091Z,10.80
2019-04-20T03:30:22.777Z,10.80
2019-04-20T03:35:20.798Z,10.80
2019-04-20T03:37:58.658Z,10.80
2019-04-20T03:40:10.264Z,10.70
2019-04-20T03:42:26.611Z,10.80
2019-04-20T03:45:00.553Z,10.80
2019-04-20T03:47:35.915Z,10.80
2019-04-20T03:50:18.070Z,10.80
2019-04-20T03:52:49.807Z,10.70
2019-04-20T03:55:19.919Z,10.70
2019-04-20T03:58:15.319Z,10.50
2019-04-20T04:00:42.503Z,10.40
2019-04-20T04:03:44.123Z,10.30
2019-04-20T04:05:55.941Z,10.30
2019-04-20T04:08:23.729Z,10.10
2019-04-20T04:11:02.408Z,10.00
2019-04-20T04:13:21.176Z,10.00
2019-04-20T04:15:57.545Z,10.00
2019-04-20T04:18:28.016Z,10.00
2019-04-20T04:21:01.465Z,10.00
2019-04-20T04:23:40.893Z,10.00
2019-04-20T04:26:26.426Z,10.20
2019-04-20T04:28:42.355Z,10.10
2019-04-20T04:36:15.540Z,10.20
2019-04-20T04:38:51.488Z,10.20
2019-04-20T04:41:35.462Z,10.20
2019-04-20T04:43:44.353Z,10.20
2019-04-20T04:46:01.575Z,10.30
2019-04-20T04:48:35.783Z,10.30
2019-04-20T04:51:08.391Z,10.30
2019-04-20T04:53:45.449Z,10.40
2019-04-20T04:56:07.156Z,10.40
2019-04-20T04:58:34.012Z,10.50
2019-04-20T05:01:11.750Z,10.50
2019-04-20T05:03:58.187Z,10.60
2019-04-20T05:06:22.033Z,10.70
2019-04-20T05:08:43.759Z,10.70
2019-04-20T05:11:08.984Z,10.70
2019-04-20T05:13:46.781Z,10.80
2019-04-20T05:16:33.615Z,10.90
2019-04-20T05:19:05.146Z,11.00
2019-04-20T05:21:34.238Z,11.00
2019-04-20T05:24:06.251Z,10.90
2019-04-20T05:26:44.780Z,10.80
2019-04-20T05:29:03.448Z,10.70
2019-04-20T05:31:37.994Z,10.70
2019-04-20T05:34:20.470Z,10.70
2019-04-20T05:36:49.328Z,10.60
2019-04-20T05:39:26.958Z,10.60
2019-04-20T05:41:48.583Z,10.60
2019-04-20T05:44:45.780Z,10.60
2019-04-20T05:47:19.688Z,10.60
2019-04-20T05:49:48.389Z,10.70
2019-04-20T05:52:31.634Z,10.80
2019-04-20T05:54:51.391Z,10.80
2019-04-20T05:57:26.344Z,10.80
2019-04-20T06:00:01.612Z,10.90
2019-04-20T06:02:27.694Z,10.90
2019-04-20T06:05:05.651Z,11.00
2019-04-20T06:07:31.108Z,11.00
2019-04-20T06:09:59.798Z,11.10
2019-04-20T06:12:33.116Z,11.20
2019-04-20T06:15:13.283Z,11.20
2019-04-20T06:17:58.398Z,11.30
2019-04-20T06:20:37.972Z,11.20
2019-04-20T06:23:14.274Z,11.30
2019-04-20T06:25:54.843Z,11.50
2019-04-20T06:28:12.856Z,11.60
2019-04-20T06:30:41.756Z,11.70
2019-04-20T06:34:08.908Z,11.80
2019-04-20T06:36:32.501Z,11.80
2019-04-20T06:39:02.319Z,11.90
2019-04-20T06:41:44.683Z,12.00
2019-04-20T06:44:02.507Z,12.00
2019-04-20T06:46:37.586Z,12.00
2019-04-20T06:49:13.514Z,12.10
2019-04-20T06:51:47.648Z,12.10
2019-04-20T06:54:17.336Z,12.20
2019-04-20T06:57:04.233Z,12.20
2019-04-20T06:59:39.309Z,12.20
2019-04-20T07:02:11.982Z,12.30
2019-04-20T07:04:41.762Z,12.30
2019-04-20T07:07:10.196Z,12.50
2019-04-20T07:09:47.468Z,12.50
2019-04-20T07:12:03.148Z,12.60
2019-04-20T07:14:34.444Z,12.60
2019-04-20T07:17:26.990Z,12.70
2019-04-20T07:19:50.225Z,12.90
2019-04-20T07:25:05.418Z,13.00
2019-04-20T07:27:41.558Z,13.20
2019-04-20T07:30:21.910Z,13.30
2019-04-20T07:32:51.129Z,13.50
2019-04-20T07:35:17.177Z,13.70
2019-04-20T07:40:15.090Z,14.00
2019-04-20T07:42:52.384Z,14.00
2019-04-20T07:48:02.727Z,14.00
2019-04-20T07:50:13.634Z,14.00
2019-04-20T07:52:43.226Z,14.00
2019-04-20T07:57:47.402Z,14.20
2019-04-20T08:00:35.578Z,14.30
2019-04-20T08:03:21.962Z,14.30
2019-04-20T08:05:55.228Z,14.40
2019-04-20T08:08:32.586Z,14.60
2019-04-20T08:11:10.310Z,14.80
2019-04-20T08:13:45.609Z,15.00
2019-04-20T08:16:17.035Z,15.10
2019-04-20T08:21:21.004Z,15.50
2019-04-20T08:23:44.102Z,15.70
2019-04-20T08:26:07.387Z,15.70
2019-04-20T08:28:39.162Z,15.80
2019-04-20T08:31:33.347Z,16.00
2019-04-20T08:36:47.843Z,16.20
2019-04-20T08:41:45.108Z,16.20
2019-04-20T08:44:42.876Z,16.30
2019-04-20T08:47:00.328Z,16.40
2019-04-20T08:49:29.529Z,16.60
2019-04-20T08:52:08.266Z,16.80
2019-04-20T08:54:22.088Z,16.90
2019-04-20T08:56:45.166Z,17.10
2019-04-20T08:59:11.523Z,17.40
2019-04-20T09:02:07.183Z,17.50
2019-04-20T09:04:43.487Z,17.70
2019-04-20T09:07:11.450Z,17.90
2019-04-20T09:09:56.462Z,18.20
2019-04-20T09:12:19.163Z,18.60
2019-04-20T09:14:39.438Z,18.80
2019-04-20T09:17:12.758Z,19.10
2019-04-20T09:19:51.196Z,19.40
2019-04-20T09:22:39.749Z,19.70
2019-04-20T09:27:40.743Z,20.20
2019-04-20T09:30:20.491Z,20.40
2019-04-20T09:32:56.100Z,20.70
2019-04-20T09:35:25.318Z,20.90
2019-04-20T09:38:01.719Z,20.90
2019-04-20T09:40:33.613Z,20.70
2019-04-20T09:42:46.270Z,20.60
2019-04-20T09:45:23.225Z,20.50
2019-04-20T09:47:51.510Z,20.50
2019-04-20T09:50:33.693Z,20.50
2019-04-20T09:53:06.064Z,20.80
2019-04-20T09:55:31.346Z,20.90
2019-04-20T09:58:06.242Z,21.00
2019-04-20T10:00:42.143Z,20.80
2019-04-20T10:02:54.802Z,20.80
2019-04-20T10:05:25.358Z,20.90
2019-04-20T10:07:58.723Z,21.00
2019-04-20T10:10:32.286Z,21.40
2019-04-20T10:12:56.421Z,21.60
2019-04-20T10:15:27.873Z,21.70
2019-04-20T10:18:15.789Z,21.50
2019-04-20T10:20:45.547Z,21.40
2019-04-20T10:23:16.377Z,21.30
2019-04-20T10:25:46.728Z,21.70
2019-04-20T10:28:16.058Z,22.10
2019-04-20T10:30:46.306Z,22.50
2019-04-20T10:33:15.596Z,23.00
2019-04-20T10:35:47.680Z,23.40
2019-04-20T10:38:25.654Z,23.80
2019-04-20T10:41:04.231Z,24.40
2019-04-20T10:46:06.925Z,25.10
2019-04-20T10:48:41.745Z,25.60
2019-04-20T10:51:08.459Z,25.90
2019-04-20T10:54:02.752Z,26.00
2019-04-20T10:56:31.657Z,26.20
2019-04-20T10:59:03.386Z,26.10
2019-04-20T11:01:33.730Z,26.90
2019-04-20T11:04:22.951Z,27.20
2019-04-20T11:06:52.398Z,26.70
2019-04-20T11:09:22.695Z,27.10
2019-04-20T11:11:52.431Z,27.30
2019-04-20T11:14:27.965Z,27.30
2019-04-20T11:16:52.219Z,27.40
2019-04-20T11:19:21.520Z,27.40
2019-04-20T11:21:50.815Z,27.60
2019-04-20T11:24:20.463Z,27.90
2019-04-20T11:26:49.874Z,27.70
2019-04-20T11:29:20.011Z,27.80
2019-04-20T11:31:53.075Z,27.60
2019-04-20T11:34:23.682Z,27.50
2019-04-20T11:36:50.875Z,27.50
2019-04-20T11:39:20.931Z,28.00
2019-04-20T11:41:50.231Z,28.60
2019-04-20T11:44:19.992Z,28.90
2019-04-20T11:46:50.882Z,28.80
2019-04-20T11:49:21.522Z,28.60
2019-04-20T11:51:51.829Z,28.60
2019-04-20T11:54:22.093Z,28.00
2019-04-20T11:56:51.455Z,28.20
2019-04-20T11:59:21.079Z,28.20
2019-04-20T12:02:04.122Z,28.10
2019-04-20T12:04:42.149Z,28.60
2019-04-20T12:07:04.734Z,28.90
2019-04-20T12:09:33.937Z,29.20
2019-04-20T12:12:15.635Z,29.10
2019-04-20T12:14:34.627Z,29.30
2019-04-20T12:17:03.881Z,29.20
2019-04-20T12:19:53.217Z,29.30
2019-04-20T12:22:22.442Z,29.90
2019-04-20T12:24:52.171Z,30.40
2019-04-20T12:27:22.854Z,29.80
2019-04-20T12:29:52.535Z,29.50
2019-04-20T12:32:26.325Z,29.40
2019-04-20T12:34:54.049Z,29.10
2019-04-20T12:37:23.463Z,29.10
2019-04-20T12:39:53.279Z,29.90
2019-04-20T12:42:23.114Z,30.10
2019-04-20T12:44:53.827Z,30.90
2019-04-20T12:47:23.838Z,30.20
2019-04-20T12:49:53.840Z,30.30
2019-04-20T12:52:23.650Z,30.60
2019-04-20T12:54:54.538Z,30.70
2019-04-20T12:57:24.750Z,30.70
2019-04-20T12:59:55.733Z,30.60
2019-04-20T13:02:27.185Z,31.00
2019-04-20T13:04:57.642Z,31.10
2019-04-20T13:07:26.937Z,31.30
2019-04-20T13:09:56.986Z,31.20
2019-04-20T13:12:40.690Z,30.90
2019-04-20T13:15:36.313Z,30.90
2019-04-20T13:18:07.449Z,30.80
2019-04-20T13:20:37.726Z,30.80
2019-04-20T13:23:07.496Z,30.60
2019-04-20T13:25:39.235Z,30.10
2019-04-20T13:28:08.974Z,30.10
2019-04-20T13:30:39.735Z,29.90
2019-04-20T13:33:10.123Z,29.80
2019-04-20T13:35:40.528Z,29.90
2019-04-20T13:38:12.039Z,30.40
2019-04-20T13:40:42.127Z,30.70
2019-04-20T13:43:32.976Z,30.30
2019-04-20T13:46:02.927Z,30.00
2019-04-20T13:48:34.887Z,30.30
2019-04-20T13:51:05.463Z,30.60
2019-04-20T13:53:35.048Z,30.50
2019-04-20T13:56:05.459Z,30.30
2019-04-20T13:58:40.113Z,30.10
2019-04-20T14:01:14.674Z,30.40
2019-04-20T14:03:44.997Z,30.40
2019-04-20T14:06:14.398Z,31.10
2019-04-20T14:08:45.383Z,30.90
2019-04-20T14:11:15.608Z,30.70
2019-04-20T14:13:51.885Z,30.90
2019-04-20T14:16:16.755Z,30.90
2019-04-20T14:18:47.125Z,30.10
2019-04-20T14:21:16.426Z,29.30
2019-04-20T14:23:46.079Z,28.60
2019-04-20T14:26:15.187Z,27.50
2019-04-20T14:28:45.090Z,26.60
2019-04-20T14:31:14.384Z,25.90
2019-04-20T14:33:44.637Z,25.20
2019-04-20T14:36:14.810Z,24.90
2019-04-20T14:38:46.287Z,24.50
2019-04-20T14:41:16.035Z,24.10
2019-04-20T14:43:45.185Z,23.90
2019-04-20T14:46:14.673Z,23.40
2019-04-20T14:48:44.943Z,23.10
2019-04-20T14:51:14.106Z,22.80
2019-04-20T14:53:43.297Z,22.60
2019-04-20T14:56:13.554Z,22.40
2019-04-20T14:58:51.355Z,22.30
2019-04-20T15:01:30.214Z,22.10
2019-04-20T15:04:05.808Z,22.00
2019-04-20T15:06:33.352Z,21.80
2019-04-20T15:09:01.319Z,21.50
2019-04-20T15:11:30.532Z,21.20
2019-04-20T15:14:00.692Z,21.10
2019-04-20T15:16:30.744Z,21.00
2019-04-20T15:19:01.590Z,21.00
2019-04-20T15:21:38.120Z,21.00
2019-04-20T15:24:07.062Z,20.90
2019-04-20T15:26:36.280Z,21.00
2019-04-20T15:29:06.344Z,21.00
2019-04-20T15:31:36.391Z,21.10
2019-04-20T15:34:06.877Z,21.20
2019-04-20T15:36:36.191Z,21.00
2019-04-20T15:39:07.464Z,20.90
2019-04-20T15:41:36.762Z,20.80
2019-04-20T15:44:07.200Z,20.80
2019-04-20T15:46:37.040Z,20.60
2019-04-20T15:49:08.100Z,20.60
2019-04-20T15:51:37.542Z,20.60
2019-04-20T15:54:07.533Z,20.50
2019-04-20T15:56:37.606Z,20.40
2019-04-20T15:59:08.330Z,20.40
2019-04-20T16:01:40.598Z,20.30
2019-04-20T16:04:23.109Z,20.30
2019-04-20T16:06:45.225Z,20.20
2019-04-20T16:09:15.677Z,20.20
2019-04-20T16:11:44.941Z,20.30
2019-04-20T16:14:15.350Z,20.40
2019-04-20T16:16:44.576Z,20.50
2019-04-20T16:19:29.175Z,20.50
2019-04-20T16:21:45.618Z,20.60
2019-04-20T16:24:16.785Z,20.70
2019-04-20T16:26:51.483Z,21.00
2019-04-20T16:29:21.806Z,21.30
2019-04-20T16:31:52.052Z,21.40
2019-04-20T16:34:21.539Z,21.50
2019-04-20T16:36:54.338Z,21.60
2019-04-20T16:39:22.587Z,21.70
2019-04-20T16:41:51.898Z,21.70
2019-04-20T16:44:21.059Z,21.60
2019-04-20T16:46:52.068Z,21.50
2019-04-20T16:49:21.344Z,21.20
2019-04-20T16:51:50.737Z,21.00
2019-04-20T16:54:21.666Z,20.80
2019-04-20T16:56:50.974Z,20.60
2019-04-20T16:59:21.246Z,20.40
2019-04-20T17:01:50.803Z,20.30
2019-04-20T17:04:22.650Z,20.20
2019-04-20T17:07:08.019Z,20.10
2019-04-20T17:09:37.876Z,20.10
2019-04-20T17:12:07.814Z,19.90
2019-04-20T17:14:37.865Z,19.80
2019-04-20T17:17:09.361Z,19.90
2019-04-20T17:19:39.849Z,19.80
2019-04-20T17:22:09.657Z,19.80
2019-04-20T17:24:39.907Z,19.90
2019-04-20T17:27:10.919Z,19.80
2019-04-20T17:29:50.136Z,19.70
2019-04-20T17:32:21.172Z,19.50
2019-04-20T17:35:02.024Z,19.20
2019-04-20T17:37:22.522Z,19.10
2019-04-20T17:40:11.149Z,19.30
2019-04-20T17:42:37.367Z,19.20
2019-04-20T17:45:03.819Z,19.10
2019-04-20T17:47:44.607Z,19.00
2019-04-20T17:50:18.894Z,18.70
2019-04-20T17:52:45.927Z,18.50
2019-04-20T17:55:17.826Z,18.50
2019-04-20T17:57:37.247Z,18.40
2019-04-20T18:00:17.620Z,18.40
2019-04-20T18:03:04.556Z,18.50
2019-04-20T18:05:58.409Z,18.50
2019-04-20T18:08:33.932Z,18.30
2019-04-20T18:10:53.123Z,18.30
2019-04-20T18:13:18.484Z,18.30
2019-04-20T18:15:57.010Z,18.10
2019-04-20T18:18:42.115Z,18.10
2019-04-20T18:20:59.018Z,17.90
2019-04-20T18:23:36.284Z,17.70
2019-04-20T18:26:22.717Z,17.60
2019-04-20T18:28:51.656Z,17.60
2019-04-20T18:31:13.380Z,17.50
2019-04-20T18:33:44.517Z,17.50
2019-04-20T18:36:23.657Z,17.40
2019-04-20T18:38:54.340Z,17.40
2019-04-20T18:41:28.818Z,17.30
2019-04-20T18:43:51.782Z,17.20
2019-04-20T18:46:33.084Z,17.10
2019-04-20T18:49:04.869Z,17.00
2019-04-20T18:51:41.762Z,16.90
2019-04-20T18:54:17.212Z,16.70
2019-04-20T18:56:47.192Z,16.60
2019-04-20T18:59:13.374Z,16.50
2019-04-20T19:01:45.484Z,16.30
2019-04-20T19:04:14.555Z,16.30
2019-04-20T19:06:43.811Z,16.20
2019-04-20T19:09:16.699Z,16.10
2019-04-20T19:11:52.136Z,15.90
2019-04-20T19:14:37.053Z,15.80
2019-04-20T19:17:22.436Z,15.70
2019-04-20T19:19:51.244Z,15.60
2019-04-20T19:22:17.523Z,15.50
2019-04-20T19:24:47.667Z,15.40
2019-04-20T19:27:18.882Z,15.30
2019-04-20T19:29:56.448Z,15.20
2019-04-20T19:32:34.415Z,15.20
2019-04-20T19:34:59.614Z,15.10
2019-04-20T19:37:26.098Z,15.10
2019-04-20T19:40:05.868Z,15.00
2019-04-20T19:42:34.691Z,14.90
2019-04-20T19:45:08.814Z,14.80
2019-04-20T19:47:43.770Z,14.80
2019-04-20T19:50:25.184Z,14.70
2019-04-20T19:52:50.394Z,14.60
2019-04-20T19:55:10.798Z,14.60
2019-04-20T19:57:42.859Z,14.60
2019-04-20T19:59:56.663Z,14.50
2019-04-20T20:02:25.920Z,14.40
2019-04-20T20:05:02.748Z,14.30
2019-04-20T20:07:30.903Z,14.30
2019-04-20T20:10:00.499Z,14.20
2019-04-20T20:12:27.448Z,14.10
2019-04-20T20:14:57.440Z,14.10
2019-04-20T20:17:48.589Z,14.10
2019-04-20T20:20:28.868Z,14.10
2019-04-20T20:22:37.172Z,14.00
2019-04-20T20:25:01.074Z,14.00
2019-04-20T20:27:39.964Z,13.90
2019-04-20T20:30:10.204Z,13.90
2019-04-20T20:32:49.327Z,13.90
2019-04-20T20:35:12.549Z,13.90
2019-04-20T20:37:42.540Z,13.80
2019-04-20T20:40:16.064Z,13.70
2019-04-20T20:42:55.237Z,13.70
2019-04-20T20:45:19.873Z,13.70
2019-04-20T20:48:01.859Z,13.90
2019-04-20T20:50:33.709Z,13.90
2019-04-20T20:52:55.947Z,13.90
2019-04-20T20:55:27.835Z,13.80
2019-04-20T20:57:53.596Z,13.80
2019-04-20T21:00:34.521Z,13.70
2019-04-20T21:02:56.225Z,13.80
2019-04-20T21:05:15.953Z,13.90
2019-04-20T21:07:47.911Z,13.80
2019-04-20T21:10:25.662Z,13.90
2019-04-20T21:12:53.863Z,13.90
2019-04-20T21:15:20.799Z,13.90
2019-04-20T21:18:12.201Z,13.80
2019-04-20T21:20:42.288Z,13.80
2019-04-20T21:23:07.251Z,13.80
2019-04-20T21:25:26.369Z,13.70
2019-04-20T21:27:55.100Z,13.80
2019-04-20T21:30:32.578Z,13.80
2019-04-20T21:32:59.106Z,13.90
2019-04-20T21:35:25.919Z,13.90
2019-04-20T21:38:02.470Z,13.80
2019-04-20T21:40:34.370Z,13.80
2019-04-20T21:43:00.688Z,13.90
2019-04-20T21:45:33.870Z,13.90
2019-04-20T21:48:01.333Z,13.70
2019-04-20T21:50:50.681Z,13.50
2019-04-20T21:53:09.712Z,13.50
2019-04-20T21:55:30.415Z,13.40
2019-04-20T21:58:00.810Z,13.40
2019-04-20T22:00:39.162Z,13.40
2019-04-20T22:03:06.276Z,13.40
2019-04-20T22:05:34.619Z,13.40
2019-04-20T22:08:07.895Z,13.50
2019-04-20T22:10:34.816Z,13.40
2019-04-20T22:13:04.865Z,13.40
2019-04-20T22:15:36.595Z,13.40
2019-04-20T22:18:09.785Z,13.30
2019-04-20T22:20:49.623Z,13.20
2019-04-20T22:23:22.839Z,13.20
2019-04-20T22:25:56.630Z,13.20
2019-04-20T22:28:08.732Z,13.30
2019-04-20T22:30:38.072Z,13.30
2019-04-20T22:33:31.931Z,13.30
2019-04-20T22:36:00.929Z,13.20
2019-04-20T22:38:30.918Z,13.20
2019-04-20T22:41:06.638Z,13.20
2019-04-20T22:43:35.013Z,13.20
2019-04-20T22:46:01.466Z,13.30
2019-04-20T22:48:31.355Z,13.30
2019-04-20T22:51:19.633Z,13.20
2019-04-20T22:53:46.291Z,13.30
2019-04-20T22:56:22.824Z,13.30
2019-04-20T22:58:44.805Z,13.20
2019-04-20T23:01:14.357Z,13.20
2019-04-20T23:03:34.704Z,13.30
2019-04-20T23:06:04.817Z,13.40
2019-04-20T23:08:35.027Z,13.20
2019-04-20T23:11:05.879Z,13.10
2019-04-20T23:13:39.738Z,13.10
2019-04-20T23:16:06.102Z,13.10
2019-04-20T23:18:36.288Z,13.10
2019-04-20T23:23:53.665Z,13.20
2019-04-20T23:26:30.857Z,13.20
2019-04-20T23:28:58.637Z,13.10
2019-04-20T23:31:29.046Z,13.20
2019-04-20T23:34:01.381Z,13.20
2019-04-20T23:36:38.234Z,13.10
2019-04-20T23:39:03.053Z,13.10
2019-04-20T23:41:31.726Z,13.10
2019-04-20T23:44:08.243Z,13.10
2019-04-20T23:46:37.290Z,13.20
2019-04-20T23:49:27.793Z,13.20
2019-04-20T23:52:21.385Z,13.30
2019-04-20T23:54:29.766Z,13.20
2019-04-20T23:56:57.691Z,13.10
2019-04-20T23:59:34.295Z,13.10
